createdAt,value
2023-03-23T00:01:37.950Z,51.35
2023-03-23T00:04:05.771Z,52.27
2023-03-23T00:06:35.898Z,52.05
2023-03-23T00:09:04.669Z,52.33
2023-03-23T00:11:34.096Z,52.62
2023-03-23T00:14:02.645Z,52.78
2023-03-23T00:16:34.081Z,52.75
2023-03-23T00:19:14.267Z,52.58
2023-03-23T00:21:44.412Z,52.55
2023-03-23T00:24:19.448Z,52.30
2023-03-23T00:26:49.790Z,52.64
2023-03-23T00:29:24.121Z,52.75
2023-03-23T00:31:52.181Z,52.22
2023-03-23T00:34:25.893Z,52.72
2023-03-23T00:36:58.585Z,52.92
2023-03-23T00:39:29.966Z,53.27
2023-03-23T00:42:01.834Z,53.01
2023-03-23T06:24:37.995Z,56.69
2023-03-23T06:35:07.592Z,55.92
2023-03-23T06:45:48.143Z,56.55
2023-03-23T06:48:15.854Z,56.67
2023-03-23T06:50:49.448Z,56.87
2023-03-23T06:56:37.857Z,55.58
2023-03-23T06:59:05.580Z,56.26
2023-03-23T07:01:33.116Z,55.54
2023-03-23T07:04:00.912Z,55.48
2023-03-23T07:06:28.413Z,55.62
2023-03-23T07:08:55.899Z,55.00
2023-03-23T07:11:23.413Z,54.61
2023-03-23T07:13:51.514Z,54.29
2023-03-23T07:16:20.228Z,53.93
2023-03-23T07:18:47.744Z,54.30
2023-03-23T07:21:15.218Z,54.09
2023-03-23T07:23:42.720Z,53.85
2023-03-23T07:26:10.677Z,53.89
2023-03-23T07:28:38.941Z,53.64
2023-03-23T07:31:06.508Z,53.30
2023-03-23T07:33:34.364Z,53.34
2023-03-23T07:36:02.441Z,52.92
2023-03-23T07:38:30.901Z,53.44
2023-03-23T07:40:59.413Z,53.26
2023-03-23T07:43:27.319Z,52.93
2023-03-23T07:45:54.844Z,52.24
2023-03-23T07:48:22.334Z,51.50
2023-03-23T07:50:49.909Z,51.96
2023-03-23T07:53:17.675Z,51.98
2023-03-23T07:55:45.183Z,52.30
2023-03-23T07:58:19.328Z,52.24
2023-03-23T08:00:49.956Z,51.66
2023-03-23T08:03:17.961Z,52.58
2023-03-23T08:05:45.720Z,52.39
2023-03-23T08:08:13.466Z,53.33
2023-03-23T08:10:41.425Z,53.26
2023-03-23T08:13:15.599Z,53.38
2023-03-23T08:15:43.455Z,53.75
2023-03-23T08:18:11.682Z,54.54
2023-03-23T08:20:39.377Z,56.20
2023-03-23T08:23:07.505Z,55.71
2023-03-23T08:25:35.383Z,55.65
2023-03-23T08:28:03.611Z,56.51
2023-03-23T08:30:33.987Z,55.48
2023-03-23T08:33:01.993Z,55.39
2023-03-23T08:35:30.417Z,55.93
2023-03-23T08:37:58.453Z,55.58
2023-03-23T08:40:27.624Z,55.40
2023-03-23T08:43:00.812Z,55.14
2023-03-23T08:45:28.880Z,55.37
2023-03-23T08:47:57.273Z,54.49
2023-03-23T08:50:31.798Z,54.22
2023-03-23T08:52:59.593Z,52.46
2023-03-23T08:55:27.400Z,52.78
2023-03-23T08:57:54.949Z,51.78
2023-03-23T09:00:27.129Z,52.14
2023-03-23T09:02:57.915Z,51.46
2023-03-23T09:05:29.563Z,52.42
2023-03-23T09:08:00.044Z,51.59
2023-03-23T09:10:31.230Z,52.57
2023-03-23T09:12:59.081Z,51.98
2023-03-23T09:15:34.169Z,52.36
2023-03-23T09:18:03.162Z,51.88
2023-03-23T09:20:31.160Z,52.03
2023-03-23T09:22:59.419Z,51.38
2023-03-23T09:25:28.680Z,51.43
2023-03-23T09:28:00.023Z,51.05
2023-03-23T09:30:41.925Z,52.37
2023-03-23T09:33:19.014Z,53.41
2023-03-23T09:35:46.511Z,53.30
2023-03-23T09:38:14.109Z,53.01
2023-03-23T09:41:17.095Z,53.70
2023-03-23T09:44:23.537Z,53.34
2023-03-23T09:48:08.360Z,53.20
2023-03-23T09:50:39.360Z,53.10
2023-03-23T09:53:35.953Z,53.08
2023-03-23T09:56:14.191Z,53.63
2023-03-23T09:59:03.693Z,53.90
2023-03-23T10:01:48.152Z,53.94
2023-03-23T10:04:49.639Z,52.94
2023-03-23T10:07:28.326Z,52.89
2023-03-23T10:10:04.086Z,51.56
2023-03-23T10:13:19.251Z,51.75
2023-03-23T10:15:48.294Z,50.98
2023-03-23T10:18:55.199Z,50.90
2023-03-23T10:21:25.984Z,51.66
2023-03-23T10:24:11.825Z,51.85
2023-03-23T10:27:49.656Z,51.25
2023-03-23T10:30:37.994Z,51.58
2023-03-23T10:33:43.865Z,50.69
2023-03-23T10:36:51.560Z,49.97
2023-03-23T10:39:25.618Z,49.99
2023-03-23T10:41:53.724Z,50.91
2023-03-23T10:44:27.023Z,50.74
2023-03-23T10:47:09.310Z,49.20
2023-03-23T10:50:00.685Z,49.50
2023-03-23T10:52:45.551Z,48.34
2023-03-23T10:55:25.077Z,48.45
2023-03-23T10:58:12.096Z,48.05
2023-03-23T11:00:48.641Z,47.73
2023-03-23T11:03:16.884Z,47.53
2023-03-23T11:06:01.974Z,47.83
2023-03-23T11:08:36.561Z,47.49
2023-03-23T11:11:19.264Z,45.84
2023-03-23T11:13:52.582Z,46.56
2023-03-23T11:16:35.397Z,47.18
2023-03-23T11:19:22.485Z,46.21
2023-03-23T11:22:07.982Z,46.89
2023-03-23T11:24:53.319Z,46.09
2023-03-23T11:27:22.032Z,45.02
2023-03-23T11:30:19.460Z,44.33
2023-03-23T11:32:47.691Z,43.84
2023-03-23T11:35:29.712Z,44.35
2023-03-23T11:38:00.248Z,45.50
2023-03-23T11:40:36.744Z,43.38
2023-03-23T11:43:20.211Z,40.55
2023-03-23T11:46:27.198Z,39.62
2023-03-23T11:49:25.392Z,39.88
2023-03-23T11:52:14.405Z,39.63
2023-03-23T11:55:03.605Z,39.92
2023-03-23T11:57:31.844Z,39.03
2023-03-23T12:00:02.089Z,38.83
2023-03-23T12:03:18.903Z,38.35
2023-03-23T12:06:12.032Z,39.07
2023-03-23T12:09:56.233Z,38.78
2023-03-23T12:13:07.938Z,37.40
2023-03-23T12:16:28.829Z,36.69
2023-03-23T12:23:49.521Z,38.33
2023-03-23T12:27:11.342Z,40.42
2023-03-23T12:30:04.472Z,40.96
2023-03-23T12:32:54.270Z,41.76
2023-03-23T12:36:31.131Z,41.00
2023-03-23T12:39:50.116Z,40.71
2023-03-23T12:42:54.646Z,40.20
2023-03-23T12:45:56.673Z,40.21
2023-03-23T12:48:51.749Z,41.04
2023-03-23T12:51:46.840Z,39.73
2023-03-23T12:54:52.750Z,40.26
2023-03-23T12:58:14.900Z,41.80
2023-03-23T13:01:13.168Z,42.85
2023-03-23T13:04:01.951Z,41.72
2023-03-23T13:06:44.359Z,43.47
2023-03-23T13:09:39.170Z,43.59
2023-03-23T13:12:11.729Z,43.28
2023-03-23T13:15:59.736Z,42.93
2023-03-23T13:19:11.138Z,42.87
2023-03-23T13:22:14.562Z,42.78
2023-03-23T13:24:57.745Z,42.93
2023-03-23T13:27:30.901Z,43.67
2023-03-23T13:29:59.489Z,42.97
2023-03-23T13:32:49.886Z,43.29
2023-03-23T13:35:23.017Z,43.80
2023-03-23T13:37:53.660Z,43.79
2023-03-23T13:40:32.869Z,43.59
2023-03-23T13:43:01.786Z,43.51
2023-03-23T13:45:29.110Z,42.73
2023-03-23T13:48:27.123Z,43.39
2023-03-23T13:51:02.150Z,42.93
2023-03-23T13:53:49.140Z,43.48
2023-03-23T13:56:55.718Z,43.45
2023-03-23T13:59:36.338Z,43.20
2023-03-23T14:02:33.900Z,43.37
2023-03-23T14:05:18.105Z,43.23
2023-03-23T14:08:09.343Z,43.65
2023-03-23T14:10:55.020Z,43.28
2023-03-23T14:13:36.159Z,43.32
2023-03-23T14:16:18.265Z,43.37
2023-03-23T14:18:57.858Z,43.29
2023-03-23T14:21:43.546Z,42.94
2023-03-23T14:24:19.282Z,43.29
2023-03-23T14:26:47.896Z,42.54
2023-03-23T14:29:15.580Z,42.62
2023-03-23T14:31:43.686Z,42.72
2023-03-23T14:34:22.668Z,42.68
2023-03-23T14:36:50.419Z,42.63
2023-03-23T14:39:33.652Z,42.42
2023-03-23T14:42:21.167Z,42.63
2023-03-23T14:44:51.809Z,42.49
2023-03-23T14:47:44.135Z,42.58
2023-03-23T14:50:49.434Z,42.93
2023-03-23T14:53:41.356Z,43.01
2023-03-23T14:56:16.933Z,42.80
2023-03-23T14:58:52.600Z,43.17
2023-03-23T15:01:31.288Z,43.00
2023-03-23T15:04:23.445Z,42.95
2023-03-23T15:07:03.112Z,43.42
2023-03-23T15:09:31.823Z,43.81
2023-03-23T15:12:05.460Z,44.17
2023-03-23T15:14:46.709Z,43.99
2023-03-23T15:17:30.839Z,43.88
2023-03-23T15:20:02.124Z,43.53
2023-03-23T15:22:32.700Z,43.75
2023-03-23T15:25:23.881Z,43.59
2023-03-23T15:27:59.899Z,43.60
2023-03-23T15:30:29.792Z,43.55
2023-03-23T15:33:13.075Z,43.88
2023-03-23T15:35:51.057Z,43.91
2023-03-23T15:38:34.826Z,43.85
2023-03-23T15:41:20.983Z,44.06
2023-03-23T15:44:34.338Z,43.90
2023-03-23T15:47:21.647Z,43.84
2023-03-23T15:50:28.275Z,44.09
2023-03-23T15:52:56.086Z,43.97
2023-03-23T15:55:39.706Z,43.75
2023-03-23T15:58:14.154Z,43.93
2023-03-23T16:00:44.150Z,44.30
2023-03-23T16:04:02.325Z,44.31
2023-03-23T16:06:34.293Z,44.32
2023-03-23T16:09:04.684Z,43.93
2023-03-23T16:11:33.814Z,44.00
2023-03-23T16:14:01.670Z,44.09
2023-03-23T16:16:50.296Z,44.07
2023-03-23T16:19:20.651Z,43.85
2023-03-23T16:21:48.208Z,44.20
2023-03-23T16:24:15.948Z,44.29
2023-03-23T16:26:43.386Z,43.82
2023-03-23T16:29:33.757Z,44.25
2023-03-23T16:32:04.669Z,43.92
2023-03-23T16:34:33.975Z,43.90
2023-03-23T16:37:02.353Z,43.93
2023-03-23T16:39:30.342Z,44.30
2023-03-23T16:41:57.863Z,44.43
2023-03-23T16:44:25.753Z,44.53
2023-03-23T16:46:53.158Z,44.51
2023-03-23T16:49:20.665Z,44.63
2023-03-23T16:51:48.396Z,44.32
2023-03-23T16:54:16.463Z,44.57
2023-03-23T16:56:48.237Z,44.57
2023-03-23T16:59:15.963Z,44.32
2023-03-23T17:01:43.507Z,44.06
2023-03-23T17:04:11.496Z,43.39
2023-03-23T17:06:39.036Z,43.13
2023-03-23T17:09:07.504Z,43.17
2023-03-23T17:11:34.987Z,43.45
2023-03-23T17:14:02.496Z,43.76
2023-03-23T17:16:29.999Z,44.02
2023-03-23T17:18:57.531Z,44.51
2023-03-23T17:21:26.121Z,44.76
2023-03-23T17:23:54.504Z,45.09
2023-03-23T17:26:21.989Z,45.31
2023-03-23T17:28:49.459Z,45.67
2023-03-23T17:31:16.990Z,46.09
2023-03-23T17:33:44.565Z,45.96
2023-03-23T17:36:12.382Z,46.06
2023-03-23T17:38:39.948Z,45.93
2023-03-23T17:41:08.227Z,46.06
2023-03-23T17:43:36.508Z,45.97
2023-03-23T17:46:04.599Z,45.78
2023-03-23T17:48:32.341Z,46.24
2023-03-23T17:51:02.385Z,46.08
2023-03-23T17:53:35.826Z,46.11
2023-03-23T17:56:06.595Z,46.39
2023-03-23T17:58:35.437Z,46.69
2023-03-23T18:01:04.747Z,46.54
2023-03-23T18:03:32.553Z,47.02
2023-03-23T18:06:05.099Z,46.79
2023-03-23T18:08:32.908Z,46.51
2023-03-23T18:11:01.510Z,46.49
2023-03-23T18:13:34.240Z,46.52
2023-03-23T18:16:03.907Z,46.64
2023-03-23T18:18:32.246Z,46.64
2023-03-23T18:21:09.575Z,46.32
2023-03-23T18:23:49.000Z,46.66
2023-03-23T18:26:22.074Z,46.62
2023-03-23T18:28:52.052Z,46.50
2023-03-23T18:31:21.101Z,46.36
2023-03-23T18:33:51.668Z,46.50
2023-03-23T18:36:24.690Z,46.81
2023-03-23T18:38:57.106Z,46.47
2023-03-23T18:41:25.582Z,46.48
2023-03-23T18:43:53.486Z,46.65
2023-03-23T18:46:22.402Z,46.29
2023-03-23T18:48:49.827Z,46.61
2023-03-23T18:51:17.392Z,46.59
2023-03-23T18:53:44.937Z,46.52
2023-03-23T18:56:17.646Z,46.41
2023-03-23T18:58:46.092Z,46.14
2023-03-23T19:01:17.660Z,46.07
2023-03-23T19:03:47.567Z,46.19
2023-03-23T19:06:27.850Z,45.76
2023-03-23T19:08:55.873Z,45.60
2023-03-23T19:11:26.229Z,45.23
2023-03-23T19:14:02.342Z,45.16
2023-03-23T19:16:36.181Z,45.08
2023-03-23T19:19:06.455Z,45.37
2023-03-23T19:21:34.351Z,45.22
2023-03-23T19:24:03.151Z,45.36
2023-03-23T19:26:40.773Z,45.22
2023-03-23T19:31:46.699Z,44.99
2023-03-23T19:34:16.855Z,45.06
2023-03-23T19:36:53.274Z,44.97
2023-03-23T19:39:23.201Z,45.25
2023-03-23T19:41:51.284Z,45.10
2023-03-23T19:44:18.740Z,45.61
2023-03-23T19:46:48.167Z,45.51
2023-03-23T19:49:16.298Z,45.98
2023-03-23T19:51:43.769Z,46.22
2023-03-23T19:54:13.217Z,46.32
2023-03-23T19:56:41.511Z,46.54
2023-03-23T19:59:16.586Z,46.83
2023-03-23T20:01:44.795Z,47.19
2023-03-23T20:04:12.607Z,47.76
2023-03-23T20:06:40.457Z,48.10
2023-03-23T20:09:07.944Z,48.10
2023-03-23T20:11:35.835Z,47.96
2023-03-23T20:14:03.988Z,48.06
2023-03-23T20:16:31.446Z,48.38
2023-03-23T20:19:00.308Z,48.93
2023-03-23T20:21:29.032Z,48.98
2023-03-23T20:23:59.056Z,49.11
2023-03-23T20:26:40.187Z,49.36
2023-03-23T20:29:08.369Z,49.38
2023-03-23T20:31:41.841Z,49.70
2023-03-23T20:34:30.853Z,49.20
2023-03-23T20:37:01.985Z,49.11
2023-03-23T20:39:33.308Z,49.23
2023-03-23T20:42:03.475Z,49.07
2023-03-23T20:44:35.441Z,49.56
2023-03-23T20:47:04.584Z,49.44
2023-03-23T20:49:34.806Z,49.73
2023-03-23T20:52:02.442Z,49.42
2023-03-23T20:54:30.721Z,48.66
2023-03-23T20:56:58.852Z,48.06
2023-03-23T20:59:26.791Z,47.23
2023-03-23T21:01:54.737Z,46.55
2023-03-23T21:04:27.602Z,46.57
2023-03-23T21:06:56.277Z,46.87
2023-03-23T21:09:25.493Z,46.64
2023-03-23T21:11:53.525Z,46.55
2023-03-23T21:14:21.169Z,46.89
2023-03-23T21:16:48.664Z,47.30
2023-03-23T21:19:17.177Z,47.63
2023-03-23T21:21:56.050Z,47.67
2023-03-23T21:24:28.834Z,47.94
2023-03-23T21:27:00.571Z,47.54
2023-03-23T21:29:28.533Z,47.70
2023-03-23T21:34:28.038Z,47.67
2023-03-23T21:36:55.586Z,48.07
2023-03-23T21:39:23.689Z,47.67
2023-03-23T21:41:51.178Z,47.18
2023-03-23T21:44:18.841Z,47.28
2023-03-23T21:46:46.342Z,46.80
2023-03-23T21:49:14.498Z,46.84
2023-03-23T21:51:43.428Z,46.70
2023-03-23T21:54:12.018Z,46.89
2023-03-23T21:56:39.927Z,46.45
2023-03-23T21:59:07.864Z,46.61
2023-03-23T22:01:40.465Z,46.15
2023-03-23T22:04:08.951Z,45.76
2023-03-23T22:06:37.314Z,45.58
2023-03-23T22:09:05.886Z,45.76
2023-03-23T22:11:33.849Z,45.54
2023-03-23T22:14:02.469Z,45.90
2023-03-23T22:16:30.470Z,45.63
2023-03-23T22:19:00.450Z,45.32
2023-03-23T22:21:29.167Z,44.80
2023-03-23T22:24:00.999Z,44.26
2023-03-23T22:26:30.380Z,43.97
2023-03-23T22:29:00.827Z,43.82
2023-03-23T22:31:35.254Z,43.01
2023-03-23T22:34:03.226Z,42.97
2023-03-23T22:36:33.307Z,42.04
2023-03-23T22:39:01.853Z,41.80
2023-03-23T22:41:37.056Z,41.42
2023-03-23T22:44:12.726Z,41.21
2023-03-23T22:46:41.804Z,41.56
2023-03-23T22:49:09.377Z,41.13
2023-03-23T22:51:37.822Z,40.84
2023-03-23T22:54:06.486Z,40.99
2023-03-23T22:56:34.241Z,40.82
2023-03-23T22:59:02.076Z,40.49
2023-03-23T23:01:29.675Z,40.37
2023-03-23T23:03:57.382Z,41.17
2023-03-23T23:06:25.770Z,41.23
2023-03-23T23:08:53.328Z,41.88
2023-03-23T23:11:25.746Z,41.94
2023-03-23T23:13:54.008Z,42.46
2023-03-23T23:16:24.427Z,42.87
2023-03-23T23:18:52.734Z,42.37
2023-03-23T23:21:26.960Z,42.37
2023-03-23T23:23:55.117Z,42.50
2023-03-23T23:26:23.697Z,42.53
2023-03-23T23:28:52.048Z,43.13
2023-03-23T23:31:29.237Z,43.21
2023-03-23T23:34:02.065Z,43.50
2023-03-23T23:36:32.021Z,44.10
2023-03-23T23:39:03.551Z,44.12
2023-03-23T23:41:31.817Z,44.32
2023-03-23T23:44:00.118Z,44.73
2023-03-23T23:46:31.015Z,45.25
2023-03-23T23:49:00.442Z,45.67
2023-03-23T23:51:29.722Z,45.66
2023-03-23T23:54:01.686Z,46.26
